Time;durP1;ratioP1;P1;durP2;ratioP2;P2;SDS_P1;SDS_P2;PMS_P1;PMS_P2;Temp;Humidity;BMP_temperature;BMP_pressure;BME280_temperature;BME280_humidity;BME280_pressure;Samples;Min_cycle;Max_cycle;Signal;HPM_P1;HPM_P2
2023/03/22 00:00:34;;;;;;;;;;;9.80;99.90;;;;;;5036868;28;19909;-74
2023/03/22 00:02:59;;;;;;;;;;;9.70;99.90;;;;;;5036988;28;19954;-74
2023/03/22 00:05:25;;;;;;;;;;;9.80;99.90;;;;;;5054511;28;19908;-74
2023/03/22 00:07:53;;;;;;;;;;;9.70;99.90;;;;;;5054754;28;20294;-74
2023/03/22 00:10:18;;;;;;;;;;;9.70;99.90;;;;;;5054921;28;19927;-74
2023/03/22 00:12:44;;;;;;;;;;;9.70;99.90;;;;;;5054502;28;19904;-74
2023/03/22 00:15:10;;;;;;;;;;;9.70;99.90;;;;;;5036786;28;19935;-74
2023/03/22 00:17:38;;;;;;;;;;;9.60;99.90;;;;;;5054923;28;19908;-74
2023/03/22 00:20:10;;;;;;;;;;;10.80;99.90;;;;;;5036974;28;20038;-74
2023/03/22 00:22:35;;;;;;;;;;;9.60;99.90;;;;;;5036576;28;19912;-74
2023/03/22 00:25:02;;;;;;;;;;;9.60;99.90;;;;;;5054383;28;20367;-74
2023/03/22 00:27:27;;;;;;;;;;;9.50;99.90;;;;;;5036293;28;19912;-74
2023/03/22 00:29:56;;;;;;;;;;;9.50;99.90;;;;;;5036229;28;19959;-74
2023/03/22 00:32:21;;;;;;;;;;;9.50;99.90;;;;;;5054325;28;19904;-74
2023/03/22 00:34:47;;;;;;;;;;;9.50;99.90;;;;;;5036825;28;19905;-74
2023/03/22 00:37:15;;;;;;;;;;;9.50;99.90;;;;;;5036150;28;20011;-74
2023/03/22 00:39:43;;;;;;;;;;;9.40;99.90;;;;;;5054032;28;19999;-74
2023/03/22 00:42:09;;;;;;;;;;;9.30;99.90;;;;;;5054063;28;19908;-74
2023/03/22 00:44:35;;;;;;;;;;;9.30;99.90;;;;;;5036207;28;19927;-74
2023/03/22 00:47:00;;;;;;;;;;;9.30;99.90;;;;;;5054028;28;19912;-74
2023/03/22 00:49:26;;;;;;;;;;;9.20;99.90;;;;;;5053965;28;19943;-74
2023/03/22 00:51:55;;;;;;;;;;;9.20;99.90;;;;;;5054131;28;19905;-74
2023/03/22 00:54:20;;;;;;;;;;;10.20;99.90;;;;;;5053927;28;20426;-74
2023/03/22 00:56:46;;;;;;;;;;;9.30;99.90;;;;;;5054206;28;19972;-74
2023/03/22 00:59:15;;;;;;;;;;;9.30;99.90;;;;;;5053734;28;20315;-74
2023/03/22 01:01:41;;;;;;;;;;;9.30;99.90;;;;;;5035923;28;20284;-74
2023/03/22 01:04:06;;;;;;;;;;;9.30;99.90;;;;;;5036308;28;19905;-74
2023/03/22 01:06:32;;;;;;;;;;;9.30;99.90;;;;;;5053538;28;19991;-74
2023/03/22 01:08:58;;;;;;;;;;;9.30;99.90;;;;;;5054503;28;20071;-74
2023/03/22 01:11:24;;;;;;;;;;;9.40;99.90;;;;;;5053925;28;19940;-74
2023/03/22 01:13:49;;;;;;;;;;;9.40;99.90;;;;;;5035975;28;19909;-74
2023/03/22 01:16:15;;;;;;;;;;;9.40;99.90;;;;;;5053924;28;19909;-74
2023/03/22 01:18:41;;;;;;;;;;;9.40;99.90;;;;;;5053991;28;19999;-74
2023/03/22 01:21:07;;;;;;;;;;;9.40;99.90;;;;;;5053883;28;19986;-74
2023/03/22 01:23:32;;;;;;;;;;;9.40;99.90;;;;;;5036098;28;19991;-74
2023/03/22 01:25:58;;;;;;;;;;;9.40;99.90;;;;;;5053833;28;19992;-74
2023/03/22 01:28:23;;;;;;;;;;;9.40;99.90;;;;;;5053873;28;19927;-74
2023/03/22 01:30:50;;;;;;;;;;;9.40;99.90;;;;;;5053663;28;19905;-74
2023/03/22 01:33:15;;;;;;;;;;;9.30;99.90;;;;;;5053860;28;20261;-74
2023/03/22 01:35:41;;;;;;;;;;;9.30;99.90;;;;;;5035769;28;19909;-74
2023/03/22 01:38:06;;;;;;;;;;;9.40;99.90;;;;;;5035963;28;20038;-74
2023/03/22 01:40:34;;;;;;;;;;;9.40;99.90;;;;;;5053846;28;19960;-74
2023/03/22 01:43:00;;;;;;;;;;;9.80;99.90;;;;;;5078599;23;19921;-75
2023/03/22 01:45:49;;;;;;;;;;;9.40;99.90;;;;;;5072974;28;20264;-75
2023/03/22 01:48:17;;;;;;;;;;;9.40;99.90;;;;;;5048225;28;19912;-75
2023/03/22 01:50:44;;;;;;;;;;;9.40;99.90;;;;;;5038018;28;19905;-75
2023/03/22 01:53:12;;;;;;;;;;;9.40;99.90;;;;;;5057501;28;19905;-75
2023/03/22 01:55:38;;;;;;;;;;;9.40;99.90;;;;;;5039631;28;19959;-75
2023/03/22 01:58:04;;;;;;;;;;;9.40;99.90;;;;;;5039408;28;20263;-76
2023/03/22 02:00:30;;;;;;;;;;;9.40;99.90;;;;;;5039552;28;19954;-76
2023/03/22 02:02:56;;;;;;;;;;;9.40;99.90;;;;;;5039587;28;19999;-75
2023/03/22 02:05:21;;;;;;;;;;;9.40;99.90;;;;;;5039380;28;19956;-75
2023/03/22 02:07:47;;;;;;;;;;;9.40;99.90;;;;;;5039284;28;19947;-76
2023/03/22 02:10:14;;;;;;;;;;;9.40;99.90;;;;;;5057121;28;20381;-75
2023/03/22 02:12:59;;;;;;;;;;;9.40;99.90;;;;;;5057063;28;19905;-75
2023/03/22 02:15:32;;;;;;;;;;;9.40;99.90;;;;;;5057023;28;19905;-75
2023/03/22 02:18:10;;;;;;;;;;;9.40;99.90;;;;;;5038990;28;19947;-75
2023/03/22 02:20:38;;;;;;;;;;;9.40;99.90;;;;;;5056900;28;20339;-75
2023/03/22 02:23:13;;;;;;;;;;;9.40;99.90;;;;;;5056933;28;19906;-75
2023/03/22 02:25:41;;;;;;;;;;;9.40;99.90;;;;;;5038982;28;19909;-75
2023/03/22 02:28:10;;;;;;;;;;;9.40;99.90;;;;;;5038964;28;19905;-75
2023/03/22 02:30:48;;;;;;;;;;;9.50;99.90;;;;;;5039079;28;19911;-75
2023/03/22 02:33:27;;;;;;;;;;;9.40;99.90;;;;;;5038856;28;19904;-75
2023/03/22 02:36:11;;;;;;;;;;;9.40;99.90;;;;;;5056660;28;19908;-75
2023/03/22 02:39:12;;;;;;;;;;;9.40;99.90;;;;;;5039033;28;19953;-75
2023/03/22 02:41:47;;;;;;;;;;;9.30;99.90;;;;;;4998408;28;19968;-75
2023/03/22 02:44:39;;;;;;;;;;;9.30;99.90;;;;;;5014874;28;20419;-76
2023/03/22 02:47:08;;;;;;;;;;;9.30;99.90;;;;;;5014464;28;19913;-75
2023/03/22 02:49:36;;;;;;;;;;;9.30;99.90;;;;;;5031058;28;19904;-75
2023/03/22 02:52:09;;;;;;;;;;;9.30;99.90;;;;;;5038431;28;19909;-75
2023/03/22 02:54:37;;;;;;;;;;;9.40;99.90;;;;;;5056273;28;20409;-75
2023/03/22 02:57:04;;;;;;;;;;;9.40;99.90;;;;;;5056579;28;19909;-75
2023/03/22 02:59:31;;;;;;;;;;;9.50;99.90;;;;;;5055983;28;19911;-75
2023/03/22 03:02:01;;;;;;;;;;;9.50;99.90;;;;;;5054914;28;20264;-75
2023/03/22 03:04:28;;;;;;;;;;;9.40;99.90;;;;;;5056175;28;19904;-75
2023/03/22 03:06:56;;;;;;;;;;;9.40;99.90;;;;;;5055981;28;19912;-75
2023/03/22 03:09:22;;;;;;;;;;;9.60;99.90;;;;;;5055851;28;19954;-76
2023/03/22 03:11:49;;;;;;;;;;;9.50;99.90;;;;;;5038026;28;19940;-75
2023/03/22 03:14:21;;;;;;;;;;;9.50;99.90;;;;;;5055813;28;19905;-75
2023/03/22 03:16:51;;;;;;;;;;;9.40;99.90;;;;;;5037773;28;19960;-75
2023/03/22 03:19:22;;;;;;;;;;;9.40;99.90;;;;;;5038045;28;19905;-76
2023/03/22 03:21:55;;;;;;;;;;;9.40;99.90;;;;;;5055839;28;19931;-75
2023/03/22 03:24:23;;;;;;;;;;;9.50;99.90;;;;;;5055589;28;19904;-75
2023/03/22 03:26:57;;;;;;;;;;;9.50;99.90;;;;;;5037699;28;19951;-75
2023/03/22 03:29:23;;;;;;;;;;;9.60;99.90;;;;;;5055680;28;19991;-76
2023/03/22 03:31:55;;;;;;;;;;;9.60;99.90;;;;;;5055402;28;20418;-75
2023/03/22 03:34:41;;;;;;;;;;;9.60;99.90;;;;;;5055274;28;19905;-76
2023/03/22 03:37:09;;;;;;;;;;;9.70;99.90;;;;;;5017233;28;19909;-75
2023/03/22 03:39:37;;;;;;;;;;;9.80;99.90;;;;;;5037428;28;19904;-75
2023/03/22 03:42:03;;;;;;;;;;;9.80;99.90;;;;;;5055136;28;19919;-75
2023/03/22 03:44:30;;;;;;;;;;;9.80;99.90;;;;;;5037433;28;19995;-75
2023/03/22 03:46:56;;;;;;;;;;;9.80;99.90;;;;;;5055216;28;20260;-75
2023/03/22 03:49:22;;;;;;;;;;;9.80;99.90;;;;;;5037115;28;19916;-75
2023/03/22 03:51:50;;;;;;;;;;;9.80;99.90;;;;;;5055181;28;19926;-75
2023/03/22 03:54:15;;;;;;;;;;;9.80;99.90;;;;;;5055025;28;19908;-75
2023/03/22 03:56:41;;;;;;;;;;;9.80;99.90;;;;;;5054957;28;19978;-76
2023/03/22 03:59:08;;;;;;;;;;;9.70;99.90;;;;;;5054795;28;19955;-75
2023/03/22 04:01:34;;;;;;;;;;;9.70;99.90;;;;;;5054894;28;19984;-75
2023/03/22 04:04:00;;;;;;;;;;;9.70;99.90;;;;;;5036972;28;19912;-75
2023/03/22 04:06:25;;;;;;;;;;;9.70;99.90;;;;;;5036749;28;19905;-75
2023/03/22 04:08:52;;;;;;;;;;;10.50;99.90;;;;;;5036793;28;19913;-75
2023/03/22 04:11:18;;;;;;;;;;;9.80;99.90;;;;;;5036576;28;19987;-75
2023/03/22 04:13:44;;;;;;;;;;;9.80;99.90;;;;;;5054087;28;19905;-75
2023/03/22 04:16:09;;;;;;;;;;;9.80;99.90;;;;;;5036295;28;19908;-75
2023/03/22 04:18:35;;;;;;;;;;;9.80;99.90;;;;;;5054321;28;19909;-75
2023/03/22 04:21:00;;;;;;;;;;;9.80;99.90;;;;;;5036518;28;19999;-75
2023/03/22 04:23:26;;;;;;;;;;;9.80;99.90;;;;;;5054396;28;19904;-75
2023/03/22 04:25:52;;;;;;;;;;;9.90;99.90;;;;;;5054849;28;19991;-75
2023/03/22 04:28:20;;;;;;;;;;;9.90;99.90;;;;;;5054254;28;19905;-75
2023/03/22 04:30:50;;;;;;;;;;;9.90;99.90;;;;;;5055003;28;19911;-75
2023/03/22 04:33:16;;;;;;;;;;;10.00;99.90;;;;;;5054330;28;19912;-75
2023/03/22 04:35:41;;;;;;;;;;;9.90;99.90;;;;;;5036297;28;19909;-75
2023/03/22 04:38:08;;;;;;;;;;;9.90;99.90;;;;;;5036327;28;19909;-75
2023/03/22 04:40:37;;;;;;;;;;;9.90;99.90;;;;;;5036164;28;19904;-75
2023/03/22 04:43:03;;;;;;;;;;;9.90;99.90;;;;;;5036902;28;20004;-75
2023/03/22 04:45:31;;;;;;;;;;;9.90;99.90;;;;;;5036140;28;19911;-75
2023/03/22 04:47:59;;;;;;;;;;;9.90;99.90;;;;;;5036164;28;19944;-75
2023/03/22 04:50:27;;;;;;;;;;;11.10;99.90;;;;;;5036858;28;19920;-75
2023/03/22 04:52:52;;;;;;;;;;;9.90;99.90;;;;;;5054871;28;20315;-76
2023/03/22 04:55:18;;;;;;;;;;;9.90;99.90;;;;;;5054789;28;19911;-76
2023/03/22 04:57:46;;;;;;;;;;;9.90;99.90;;;;;;5054553;28;19939;-76
2023/03/22 05:00:12;;;;;;;;;;;9.90;99.90;;;;;;5054148;28;19909;-76
2023/03/22 05:02:39;;;;;;;;;;;9.90;99.90;;;;;;5054678;28;19905;-76
2023/03/22 05:05:05;;;;;;;;;;;9.90;99.90;;;;;;5036644;28;19955;-76
2023/03/22 05:07:30;;;;;;;;;;;9.80;99.90;;;;;;5054672;28;19905;-76
2023/03/22 05:09:56;;;;;;;;;;;9.80;99.90;;;;;;5036779;28;19911;-76
2023/03/22 05:12:21;;;;;;;;;;;10.10;99.90;;;;;;5054200;28;19935;-76
2023/03/22 05:14:47;;;;;;;;;;;9.90;99.90;;;;;;5035969;28;19905;-76
2023/03/22 05:17:12;;;;;;;;;;;9.80;99.90;;;;;;5036530;28;19931;-76
2023/03/22 05:19:38;;;;;;;;;;;9.90;99.90;;;;;;5054649;28;19947;-76
2023/03/22 05:22:03;;;;;;;;;;;9.80;99.90;;;;;;5037233;28;19966;-76
2023/03/22 05:24:47;;;;;;;;;;;9.80;99.90;;;;;;5036865;28;19915;-76
2023/03/22 05:27:13;;;;;;;;;;;9.60;99.90;;;;;;5067969;22;20011;-77
2023/03/22 05:29:43;;;;;;;;;;;9.60;99.90;;;;;;5020319;28;19967;-77
2023/03/22 05:32:12;;;;;;;;;;;9.60;99.90;;;;;;5019976;28;19948;-77
2023/03/22 05:34:39;;;;;;;;;;;9.60;99.90;;;;;;5037456;28;19905;-77
2023/03/22 05:37:05;;;;;;;;;;;11.80;99.90;;;;;;5038107;28;20373;-77
2023/03/22 05:39:30;;;;;;;;;;;9.70;99.90;;;;;;5038018;28;19995;-77
2023/03/22 05:41:56;;;;;;;;;;;9.60;99.90;;;;;;5037355;28;19908;-77
2023/03/22 05:44:21;;;;;;;;;;;9.60;99.90;;;;;;5037370;28;19905;-77
2023/03/22 05:46:49;;;;;;;;;;;9.70;99.90;;;;;;5037190;28;19905;-77
2023/03/22 05:49:15;;;;;;;;;;;9.70;99.90;;;;;;5040639;28;20036;-77
2023/03/22 05:51:41;;;;;;;;;;;9.80;99.90;;;;;;5019724;28;20374;-77
2023/03/22 05:54:07;;;;;;;;;;;9.80;99.90;;;;;;5019946;28;19909;-77
2023/03/22 05:56:34;;;;;;;;;;;9.70;99.90;;;;;;5019113;28;20290;-77
2023/03/22 05:58:59;;;;;;;;;;;9.80;99.90;;;;;;5019323;28;19909;-77
2023/03/22 06:01:24;;;;;;;;;;;9.80;99.90;;;;;;5019274;28;19905;-77
2023/03/22 06:03:50;;;;;;;;;;;10.30;99.90;;;;;;5036915;28;20322;-77
2023/03/22 06:06:15;;;;;;;;;;;9.80;99.90;;;;;;5019187;28;19905;-78
2023/03/22 06:08:41;;;;;;;;;;;9.80;99.90;;;;;;5036958;28;19908;-77
2023/03/22 06:11:10;;;;;;;;;;;10.50;99.90;;;;;;5019154;28;19986;-78
2023/03/22 06:13:36;;;;;;;;;;;9.80;99.90;;;;;;5018632;28;19992;-78
2023/03/22 06:16:02;;;;;;;;;;;9.70;99.90;;;;;;5036375;28;20003;-78
2023/03/22 06:18:28;;;;;;;;;;;9.80;99.90;;;;;;5036734;28;19904;-77
2023/03/22 06:20:54;;;;;;;;;;;9.80;99.90;;;;;;5018885;28;19905;-78
2023/03/22 06:23:19;;;;;;;;;;;9.90;99.90;;;;;;5037181;28;19959;-77
2023/03/22 06:25:45;;;;;;;;;;;9.90;99.90;;;;;;5018770;28;19905;-77
2023/03/22 06:28:10;;;;;;;;;;;9.90;99.90;;;;;;5018590;28;19979;-77
2023/03/22 06:30:36;;;;;;;;;;;10.00;99.90;;;;;;5036562;28;19912;-77
2023/03/22 06:33:04;;;;;;;;;;;10.10;99.90;;;;;;5018584;28;19905;-77
2023/03/22 06:35:29;;;;;;;;;;;10.10;99.90;;;;;;5018146;28;19912;-77
2023/03/22 06:37:55;;;;;;;;;;;10.20;99.90;;;;;;5018487;28;19909;-78
2023/03/22 06:40:21;;;;;;;;;;;10.20;99.90;;;;;;5018519;28;20015;-77
2023/03/22 06:42:46;;;;;;;;;;;10.30;99.90;;;;;;5036307;28;19905;-78
2023/03/22 06:45:15;;;;;;;;;;;10.30;99.90;;;;;;5018458;28;19905;-77
2023/03/22 06:47:40;;;;;;;;;;;10.40;99.90;;;;;;5018540;28;20402;-78
2023/03/22 06:50:06;;;;;;;;;;;10.40;99.90;;;;;;5040007;28;19905;-79
2023/03/22 06:52:32;;;;;;;;;;;10.50;99.90;;;;;;5019974;28;20371;-77
2023/03/22 06:54:57;;;;;;;;;;;10.50;99.90;;;;;;5036238;28;20287;-78
2023/03/22 06:57:22;;;;;;;;;;;10.60;99.90;;;;;;5036783;28;19916;-78
2023/03/22 06:59:48;;;;;;;;;;;10.60;99.90;;;;;;5020554;28;19963;-78
2023/03/22 07:02:14;;;;;;;;;;;10.60;99.90;;;;;;5018437;28;20004;-78
2023/03/22 07:04:39;;;;;;;;;;;10.60;99.90;;;;;;5035874;28;19912;-78
2023/03/22 07:07:05;;;;;;;;;;;10.60;99.90;;;;;;5018162;28;19928;-78
2023/03/22 07:09:30;;;;;;;;;;;11.50;99.90;;;;;;5035965;28;19931;-78
2023/03/22 07:11:56;;;;;;;;;;;10.60;99.90;;;;;;5036850;28;19967;-77
2023/03/22 07:14:22;;;;;;;;;;;10.60;99.90;;;;;;5021232;28;19960;-78
2023/03/22 07:16:50;;;;;;;;;;;10.50;99.90;;;;;;5020786;28;19920;-77
2023/03/22 07:19:17;;;;;;;;;;;10.50;99.90;;;;;;5038894;28;19905;-77
2023/03/22 07:21:42;;;;;;;;;;;11.00;99.90;;;;;;5038741;28;19905;-77
2023/03/22 07:24:10;;;;;;;;;;;10.60;99.90;;;;;;5039217;28;20047;-77
2023/03/22 07:26:39;;;;;;;;;;;10.70;99.90;;;;;;5039098;28;19905;-77
2023/03/22 07:29:05;;;;;;;;;;;10.60;99.90;;;;;;5038869;28;19913;-77
2023/03/22 07:31:34;;;;;;;;;;;10.70;99.90;;;;;;5038727;28;19905;-77
2023/03/22 07:34:00;;;;;;;;;;;10.80;99.90;;;;;;5020713;28;19905;-77
2023/03/22 07:36:25;;;;;;;;;;;10.80;99.90;;;;;;5020748;28;19909;-77
2023/03/22 07:38:51;;;;;;;;;;;10.90;99.90;;;;;;5020655;28;19911;-77
2023/03/22 07:41:17;;;;;;;;;;;10.90;99.90;;;;;;5038336;28;19927;-77
2023/03/22 07:43:43;;;;;;;;;;;11.40;99.90;;;;;;5021169;28;19905;-77
2023/03/22 07:46:08;;;;;;;;;;;11.10;99.90;;;;;;5037832;28;19976;-77
2023/03/22 07:48:34;;;;;;;;;;;11.20;99.90;;;;;;5037391;28;19912;-77
2023/03/22 07:51:00;;;;;;;;;;;11.60;99.90;;;;;;5037756;28;19905;-77
2023/03/22 07:53:25;;;;;;;;;;;11.40;99.90;;;;;;5038475;28;19912;-78
2023/03/22 07:55:51;;;;;;;;;;;11.40;99.90;;;;;;5038341;28;19905;-77
2023/03/22 07:58:16;;;;;;;;;;;11.50;99.90;;;;;;5020348;28;20014;-77
2023/03/22 08:00:42;;;;;;;;;;;11.60;99.90;;;;;;5020717;28;19906;-77
2023/03/22 08:03:09;;;;;;;;;;;11.60;99.90;;;;;;5019948;28;19905;-78
2023/03/22 08:05:35;;;;;;;;;;;11.60;99.90;;;;;;5019910;28;19912;-77
2023/03/22 08:08:01;;;;;;;;;;;11.60;99.90;;;;;;5020057;28;19905;-77
2023/03/22 08:10:26;;;;;;;;;;;11.60;99.90;;;;;;5020866;28;19905;-78
2023/03/22 08:12:52;;;;;;;;;;;11.50;99.90;;;;;;5037933;28;19993;-77
2023/03/22 08:15:17;;;;;;;;;;;11.60;99.90;;;;;;5019955;28;20038;-77
2023/03/22 08:17:42;;;;;;;;;;;11.60;99.90;;;;;;5037434;28;19916;-77
2023/03/22 08:20:08;;;;;;;;;;;11.70;99.90;;;;;;5037328;28;19913;-77
2023/03/22 08:22:35;;;;;;;;;;;11.60;99.90;;;;;;5020088;28;19908;-78
2023/03/22 08:25:01;;;;;;;;;;;13.00;99.90;;;;;;5036231;28;19905;-77
2023/03/22 08:27:26;;;;;;;;;;;11.60;99.90;;;;;;5017997;28;20356;-77
2023/03/22 08:29:52;;;;;;;;;;;11.60;99.90;;;;;;5018130;28;19916;-77
2023/03/22 08:32:17;;;;;;;;;;;13.70;99.90;;;;;;5018238;28;19954;-77
2023/03/22 08:34:43;;;;;;;;;;;11.70;99.90;;;;;;5017950;28;19912;-77
2023/03/22 08:37:09;;;;;;;;;;;11.70;99.90;;;;;;5017838;28;19917;-78
2023/03/22 08:39:35;;;;;;;;;;;11.70;99.90;;;;;;5019614;28;19936;-77
2023/03/22 08:42:01;;;;;;;;;;;11.70;99.90;;;;;;5019229;28;19909;-78
2023/03/22 08:44:26;;;;;;;;;;;11.80;99.90;;;;;;5019436;28;19955;-78
2023/03/22 08:46:52;;;;;;;;;;;11.70;99.90;;;;;;5036892;28;19905;-77
2023/03/22 08:49:18;;;;;;;;;;;11.70;99.90;;;;;;5019386;28;20115;-78
2023/03/22 08:51:43;;;;;;;;;;;11.60;99.90;;;;;;5018726;28;19912;-78
2023/03/22 08:54:09;;;;;;;;;;;11.60;99.90;;;;;;5037328;28;20015;-78
2023/03/22 08:56:36;;;;;;;;;;;11.60;99.90;;;;;;5019655;28;19909;-78
2023/03/22 08:59:03;;;;;;;;;;;11.60;99.90;;;;;;5019968;28;19905;-78
2023/03/22 09:01:28;;;;;;;;;;;13.00;99.90;;;;;;5019702;28;19909;-77
2023/03/22 09:03:54;;;;;;;;;;;11.50;99.90;;;;;;5037271;28;19912;-78
2023/03/22 09:06:19;;;;;;;;;;;11.50;99.90;;;;;;5019353;28;19951;-78
2023/03/22 09:08:45;;;;;;;;;;;11.50;99.90;;;;;;5019741;28;20004;-78
2023/03/22 09:11:11;;;;;;;;;;;11.40;99.90;;;;;;5018677;28;19972;-77
2023/03/22 09:13:37;;;;;;;;;;;11.40;99.90;;;;;;5036367;28;20334;-78
2023/03/22 09:16:04;;;;;;;;;;;11.30;99.90;;;;;;5018746;28;19906;-78
2023/03/22 09:18:29;;;;;;;;;;;11.30;99.90;;;;;;5019136;28;19905;-77
2023/03/22 09:20:55;;;;;;;;;;;11.20;99.90;;;;;;5019065;28;19970;-78
2023/03/22 09:23:20;;;;;;;;;;;11.10;99.90;;;;;;5018005;28;19905;-76
2023/03/22 09:25:46;;;;;;;;;;;11.10;99.90;;;;;;5016022;28;19909;-76
2023/03/22 09:28:12;;;;;;;;;;;11.00;99.90;;;;;;5015684;28;20295;-76
2023/03/22 09:30:38;;;;;;;;;;;11.00;99.90;;;;;;5034594;28;20237;-76
2023/03/22 09:33:03;;;;;;;;;;;10.90;99.90;;;;;;5016148;28;19912;-77
2023/03/22 09:35:29;;;;;;;;;;;10.90;99.90;;;;;;5033389;28;19956;-76
2023/03/22 09:37:55;;;;;;;;;;;11.00;99.90;;;;;;5016595;28;20255;-76
2023/03/22 09:40:23;;;;;;;;;;;10.80;99.90;;;;;;5015817;28;19905;-76
2023/03/22 09:42:51;;;;;;;;;;;10.80;99.90;;;;;;5033938;28;19909;-76
2023/03/22 09:45:31;;;;;;;;;;;10.80;99.90;;;;;;5033833;28;19905;-76
2023/03/22 09:47:58;;;;;;;;;;;10.80;99.90;;;;;;5016129;28;19989;-76
2023/03/22 09:50:25;;;;;;;;;;;11.40;99.90;;;;;;5018363;28;20367;-77
2023/03/22 09:52:51;;;;;;;;;;;10.80;99.90;;;;;;5035848;28;19905;-77
2023/03/22 09:55:19;;;;;;;;;;;10.80;99.90;;;;;;5019391;28;20344;-77
2023/03/22 09:57:46;;;;;;;;;;;10.80;99.90;;;;;;5019027;28;19915;-77
2023/03/22 10:00:21;;;;;;;;;;;10.70;99.90;;;;;;5035250;28;20387;-77
2023/03/22 10:02:47;;;;;;;;;;;10.70;99.90;;;;;;5036142;28;19905;-77
2023/03/22 10:05:31;;;;;;;;;;;10.70;99.90;;;;;;5017727;28;19994;-77
2023/03/22 10:08:15;;;;;;;;;;;10.70;99.90;;;;;;5018229;28;20256;-77
2023/03/22 10:10:41;;;;;;;;;;;10.70;99.90;;;;;;5037571;28;20379;-77
2023/03/22 10:13:15;;;;;;;;;;;10.80;99.90;;;;;;5022807;28;19968;-77
2023/03/22 10:15:45;;;;;;;;;;;10.80;99.90;;;;;;5022757;28;19905;-77
2023/03/22 10:18:15;;;;;;;;;;;10.80;99.90;;;;;;5021866;28;19916;-77
2023/03/22 10:20:42;;;;;;;;;;;10.80;99.90;;;;;;5039275;28;20360;-77
2023/03/22 10:23:12;;;;;;;;;;;11.20;99.90;;;;;;5021428;28;20071;-77
2023/03/22 10:25:39;;;;;;;;;;;10.70;99.90;;;;;;5038690;28;20326;-77
2023/03/22 10:28:25;;;;;;;;;;;10.70;99.90;;;;;;5039010;28;19913;-77
2023/03/22 10:30:53;;;;;;;;;;;10.70;99.90;;;;;;5022246;28;19905;-77
2023/03/22 10:33:26;;;;;;;;;;;10.80;99.90;;;;;;5039188;28;19916;-77
2023/03/22 10:35:51;;;;;;;;;;;10.80;99.90;;;;;;5039573;28;20319;-77
2023/03/22 10:38:20;;;;;;;;;;;10.80;99.90;;;;;;5039465;28;19909;-77
2023/03/22 10:40:45;;;;;;;;;;;10.80;99.90;;;;;;5038741;28;19956;-77
2023/03/22 10:43:30;;;;;;;;;;;10.70;99.90;;;;;;5020106;28;20388;-77
2023/03/22 10:45:56;;;;;;;;;;;10.60;99.90;;;;;;5020001;28;19912;-77
2023/03/22 10:48:25;;;;;;;;;;;10.60;99.90;;;;;;5038070;28;19905;-77
2023/03/22 10:50:50;;;;;;;;;;;10.70;99.90;;;;;;5037955;28;19905;-77
2023/03/22 10:53:27;;;;;;;;;;;10.70;99.90;;;;;;5037786;28;19911;-77
2023/03/22 10:55:52;;;;;;;;;;;10.70;99.90;;;;;;5020597;28;20436;-77
2023/03/22 10:58:19;;;;;;;;;;;10.70;99.90;;;;;;5020424;28;19944;-77
2023/03/22 11:00:52;;;;;;;;;;;10.80;99.90;;;;;;5038100;28;19909;-77
2023/03/22 11:03:30;;;;;;;;;;;11.00;99.90;;;;;;5020554;28;19905;-77
2023/03/22 11:06:09;;;;;;;;;;;11.00;99.90;;;;;;5038574;28;19955;-77
2023/03/22 11:08:45;;;;;;;;;;;11.10;99.90;;;;;;5038297;28;19905;-77
2023/03/22 11:11:26;;;;;;;;;;;11.10;99.90;;;;;;5021377;28;20267;-77
2023/03/22 11:13:51;;;;;;;;;;;11.10;99.90;;;;;;5038640;28;19912;-77
2023/03/22 11:16:17;;;;;;;;;;;11.20;99.90;;;;;;5038657;28;19908;-77
2023/03/22 11:18:43;;;;;;;;;;;11.30;99.90;;;;;;5038844;28;20417;-77
2023/03/22 11:21:10;;;;;;;;;;;11.20;99.90;;;;;;5021098;28;19980;-77
2023/03/22 11:23:37;;;;;;;;;;;11.30;99.90;;;;;;5037445;28;19912;-77
2023/03/22 11:26:08;;;;;;;;;;;11.30;99.90;;;;;;5038115;28;19909;-77
2023/03/22 11:28:36;;;;;;;;;;;11.30;99.90;;;;;;5038302;28;20395;-77
2023/03/22 11:31:05;;;;;;;;;;;11.40;99.90;;;;;;5020696;28;19948;-77
2023/03/22 11:33:31;;;;;;;;;;;11.40;99.90;;;;;;5038550;28;19912;-77
2023/03/22 11:36:01;;;;;;;;;;;11.40;99.90;;;;;;5037280;28;20429;-77
2023/03/22 11:38:28;;;;;;;;;;;11.40;99.90;;;;;;5037423;28;19908;-77
2023/03/22 11:41:01;;;;;;;;;;;11.40;99.90;;;;;;5020498;28;20352;-77
2023/03/22 11:43:31;;;;;;;;;;;11.40;99.90;;;;;;5020295;28;19912;-77
2023/03/22 11:45:57;;;;;;;;;;;11.40;99.90;;;;;;5037571;28;20331;-77
2023/03/22 11:48:25;;;;;;;;;;;11.40;99.90;;;;;;5019435;28;19905;-77
2023/03/22 11:50:52;;;;;;;;;;;11.40;99.90;;;;;;5037128;28;20327;-77
2023/03/22 11:53:20;;;;;;;;;;;11.50;99.90;;;;;;5019434;28;19912;-77
2023/03/22 11:55:47;;;;;;;;;;;11.40;99.90;;;;;;5019339;28;19912;-77
2023/03/22 11:58:21;;;;;;;;;;;11.40;99.90;;;;;;5036311;28;20372;-77
2023/03/22 12:00:51;;;;;;;;;;;11.30;99.90;;;;;;5037054;28;19955;-77
2023/03/22 12:03:18;;;;;;;;;;;11.30;99.90;;;;;;5018573;28;19905;-77
2023/03/22 12:05:46;;;;;;;;;;;11.30;99.90;;;;;;5036191;28;20284;-77
2023/03/22 12:08:20;;;;;;;;;;;11.30;99.90;;;;;;5017990;28;20002;-77
2023/03/22 12:11:05;;;;;;;;;;;11.40;99.90;;;;;;5019105;28;19924;-77
2023/03/22 12:13:48;;;;;;;;;;;11.30;99.90;;;;;;5036665;28;20403;-77
2023/03/22 12:16:16;;;;;;;;;;;11.30;99.90;;;;;;5036956;28;19992;-77
2023/03/22 12:18:53;;;;;;;;;;;11.30;99.90;;;;;;5037155;28;19924;-78
2023/03/22 12:21:19;;;;;;;;;;;11.40;99.90;;;;;;5035910;28;19913;-77
2023/03/22 12:23:44;;;;;;;;;;;11.40;99.90;;;;;;5019067;28;19912;-77
2023/03/22 12:26:10;;;;;;;;;;;11.40;99.90;;;;;;5018777;28;20319;-77
2023/03/22 12:28:54;;;;;;;;;;;11.40;99.90;;;;;;5035943;28;19963;-77
2023/03/22 12:31:26;;;;;;;;;;;11.40;99.90;;;;;;5035944;28;20337;-77
2023/03/22 12:33:56;;;;;;;;;;;11.40;99.90;;;;;;5018154;28;19955;-78
2023/03/22 12:36:30;;;;;;;;;;;11.40;99.90;;;;;;5035986;28;20359;-77
2023/03/22 12:38:57;;;;;;;;;;;11.40;99.90;;;;;;5036254;28;19909;-77
2023/03/22 12:41:30;;;;;;;;;;;11.40;99.90;;;;;;5035906;28;19905;-77
2023/03/22 12:43:58;;;;;;;;;;;11.40;99.90;;;;;;5018617;28;19905;-77
2023/03/22 12:46:38;;;;;;;;;;;11.40;99.90;;;;;;5017963;28;19980;-77
2023/03/22 12:49:04;;;;;;;;;;;11.40;99.90;;;;;;5017906;28;19905;-77
2023/03/22 12:51:29;;;;;;;;;;;11.50;99.90;;;;;;5035716;28;19905;-77
2023/03/22 12:53:56;;;;;;;;;;;11.60;99.90;;;;;;5035598;28;19912;-76
2023/03/22 12:56:27;;;;;;;;;;;11.50;99.90;;;;;;5035479;28;20385;-78
2023/03/22 12:58:57;;;;;;;;;;;11.50;99.90;;;;;;5018073;28;19944;-77
2023/03/22 13:01:29;;;;;;;;;;;12.10;99.90;;;;;;5035553;28;19955;-77
2023/03/22 13:03:56;;;;;;;;;;;11.60;99.90;;;;;;5017829;28;20358;-77
2023/03/22 13:06:34;;;;;;;;;;;11.50;99.90;;;;;;5017648;28;19971;-77
2023/03/22 13:09:11;;;;;;;;;;;11.50;99.90;;;;;;5035567;28;20420;-77
2023/03/22 13:11:37;;;;;;;;;;;11.40;99.90;;;;;;5017706;28;19912;-77
2023/03/22 13:14:02;;;;;;;;;;;11.40;99.90;;;;;;5034995;28;19905;-77
2023/03/22 13:16:48;;;;;;;;;;;11.40;99.90;;;;;;5035452;28;20295;-77
2023/03/22 13:19:32;;;;;;;;;;;11.40;99.90;;;;;;5018108;28;20257;-77
2023/03/22 13:22:18;;;;;;;;;;;11.50;99.90;;;;;;5017656;28;19955;-77
2023/03/22 13:24:58;;;;;;;;;;;11.50;99.90;;;;;;5035367;28;19912;-77
2023/03/22 13:27:34;;;;;;;;;;;11.50;99.90;;;;;;5017686;28;19965;-77
2023/03/22 13:30:03;;;;;;;;;;;11.60;99.90;;;;;;5035417;28;19931;-77
2023/03/22 13:32:32;;;;;;;;;;;12.80;99.90;;;;;;5017426;28;19956;-76
2023/03/22 13:34:58;;;;;;;;;;;12.40;99.90;;;;;;5034699;28;19905;-76
2023/03/22 13:37:34;;;;;;;;;;;11.70;99.90;;;;;;5034952;28;19909;-76
2023/03/22 13:40:02;;;;;;;;;;;11.70;99.90;;;;;;5035006;28;19928;-76
2023/03/22 13:42:34;;;;;;;;;;;11.80;99.90;;;;;;5034757;28;19912;-76
2023/03/22 13:45:03;;;;;;;;;;;11.80;99.90;;;;;;5035458;28;20278;-76
2023/03/22 13:47:31;;;;;;;;;;;11.80;99.90;;;;;;5020922;28;19905;-76
2023/03/22 13:50:00;;;;;;;;;;;11.90;99.90;;;;;;5040046;28;19996;-76
2023/03/22 13:52:27;;;;;;;;;;;11.80;99.90;;;;;;5039182;28;20324;-76
2023/03/22 13:54:54;;;;;;;;;;;11.90;99.90;;;;;;5038588;28;19905;-76
2023/03/22 13:57:37;;;;;;;;;;;11.90;99.90;;;;;;5038456;28;20005;-76
2023/03/22 14:00:17;;;;;;;;;;;11.90;99.90;;;;;;5039047;28;19960;-76
2023/03/22 14:02:43;;;;;;;;;;;11.90;99.90;;;;;;5039010;28;19905;-76
2023/03/22 14:05:16;;;;;;;;;;;11.90;99.90;;;;;;5039419;28;19999;-76
2023/03/22 14:07:51;;;;;;;;;;;12.00;99.90;;;;;;5020928;28;19909;-76
2023/03/22 14:10:29;;;;;;;;;;;12.00;99.90;;;;;;5038620;28;19905;-76
2023/03/22 14:12:58;;;;;;;;;;;12.00;99.90;;;;;;5038945;28;19940;-76
2023/03/22 14:15:53;;;;;;;;;;;12.00;99.90;;;;;;5038677;28;19905;-76
2023/03/22 14:18:28;;;;;;;;;;;12.10;99.90;;;;;;5029780;28;19916;-76
2023/03/22 14:20:57;;;;;;;;;;;12.00;99.90;;;;;;5020726;28;19905;-75
2023/03/22 14:23:25;;;;;;;;;;;12.00;99.90;;;;;;5020783;28;19912;-77
2023/03/22 14:25:51;;;;;;;;;;;12.10;99.90;;;;;;5038458;28;19904;-77
2023/03/22 14:28:20;;;;;;;;;;;12.10;99.90;;;;;;5020437;28;19917;-77
2023/03/22 14:30:47;;;;;;;;;;;12.20;99.90;;;;;;5038453;28;20284;-76